Latest Weather Observations for Mount Hotham

IDV60801

Issued at 2:32 pm EDT Sunday 17 February 2019 (issued every 10 minutes, with the page automatically refreshed every 10 minutes)

About weather observations | Map of weather stations | Latest weather observations for VIC | Other Formats
Station Details ID: 083085 Name: MOUNT HOTHAM Lat: -36.98 Lon: 147.13 Height: 1849.0 m
Data from the previous 72 hours. | See also: Recent months at Mount Hotham
Date/Time
EDT
Temp
°C
App
Temp
°C
Dew
Point
°C
Rel
Hum
%
Delta-T
°C
Wind Press
QNH
hPa
Press
MSL
hPa
Rain since
9am
mm
Dir  Spd
km/h
Gust
km/h
Spd
kts
Gust
kts
17/02:30pm 16.8 - - - - NW 24 43 13 23 - - 0.0
17/02:03pm 16.1 - - - - NNW 28 46 15 25 - - 0.0
17/02:00pm 16.3 - - - - NNW 24 46 13 25 - - 0.0
17/01:30pm 16.3 - - - - NNW 28 43 15 23 - - 0.0
17/01:00pm 16.7 - - - - NW 24 39 13 21 - - 0.0
17/12:30pm 16.4 - - - - NNW 24 41 13 22 - - 0.0
17/12:00pm 15.6 - - - - NW 20 35 11 19 - - 0.0
17/11:30am 14.9 - - - - NNW 28 41 15 22 - - 0.0
17/11:00am 15.2 - - - - NNW 26 41 14 22 - - 0.0
17/10:30am 13.3 - - - - NNW 28 39 15 21 - - 0.0
17/10:00am 13.2 - - - - NNW 28 37 15 20 - - 0.0
17/09:30am 13.6 - - - - NNW 28 44 15 24 - - 0.0
17/09:00am 13.3 - - - - N 32 46 17 25 - - 0.0
17/08:30am 12.7 - - - - NNW 35 48 19 26 - - 0.0
17/08:00am 11.9 - - - - NNW 32 44 17 24 - - 0.0
17/07:30am 12.1 - - - - NNW 30 39 16 21 - - 0.0
17/07:00am 11.7 - - - - NNW 32 41 17 22 - - 0.0
17/06:30am 11.9 - - - - NNW 32 41 17 22 - - 0.0
17/06:00am 12.2 - - - - NNW 32 39 17 21 - - 0.0
17/05:30am 12.2 - - - - NNW 30 41 16 22 - - 0.0
17/05:00am 12.4 - - - - NNW 30 43 16 23 - - 0.0
17/04:30am 12.6 - - - - NNW 32 41 17 22 - - 0.0
17/04:00am 12.7 - - - - NNW 28 39 15 21 - - 0.0
17/03:30am 12.7 - - - - NNW 28 39 15 21 - - 0.0
17/03:00am 12.9 - - - - NNW 28 35 15 19 - - 0.0
17/02:30am 12.7 - - - - NNW 24 32 13 17 - - 0.0
17/02:00am 12.7 - - - - NNW 22 30 12 16 - - 0.0
17/01:30am 12.8 - - - - NNW 22 28 12 15 - - 0.0
17/01:00am 12.8 - - - - NNW 20 26 11 14 - - 0.0
17/12:30am 12.8 - - - - NNW 15 20 8 11 - - 0.0
17/12:00am 12.9 - - - - NNW 17 20 9 11 - - 0.0
 
Date/Time
EDT
Temp
°C
App
Temp
°C
Dew
Point
°C
Rel
Hum
%
Delta-T
°C
Wind Press
QNH
hPa
Press
MSL
hPa
Rain since
9am
mm
Dir  Spd
km/h
Gust
km/h
Spd
kts
Gust
kts
16/11:30pm 12.9 - - - - NNW 15 19 8 10 - - 0.0
16/11:00pm 13.1 - - - - NNW 13 17 7 9 - - 0.0
16/10:30pm 13.2 - - - - NNW 17 22 9 12 - - 0.0
16/10:00pm 12.8 - - - - NNW 15 19 8 10 - - 0.0
16/09:30pm 12.8 - - - - NNW 15 19 8 10 - - 0.0
16/09:00pm 12.6 - - - - N 13 17 7 9 - - 0.0
16/08:30pm 13.2 - - - - NNW 15 20 8 11 - - 0.0
16/08:00pm 13.7 - - - - NNW 17 20 9 11 - - 0.0
16/07:30pm 14.1 - - - - NW 15 22 8 12 - - 0.0
16/07:00pm 14.5 - - - - NNW 17 24 9 13 - - 0.0
16/06:30pm 15.2 - - - - NNW 17 24 9 13 - - 0.0
16/06:00pm 15.8 - - - - NNW 17 26 9 14 - - 0.0
16/05:30pm 15.8 - - - - NNW 15 24 8 13 - - 0.0
16/05:00pm 16.1 - - - - NW 17 30 9 16 - - 0.0
16/04:30pm 16.7 - - - - NW 13 28 7 15 - - 0.0
16/04:00pm 17.2 - - - - NNW 19 32 10 17 - - 0.0
16/03:30pm 15.6 - - - - NNW 24 37 13 20 - - 0.0
16/03:00pm 17.2 - - - - NNW 20 30 11 16 - - 0.0
16/02:30pm 17.0 - - - - NNW 24 37 13 20 - - 0.0
16/02:00pm 16.2 - - - - N 24 37 13 20 - - 0.0
16/01:30pm 15.7 - - - - NNW 24 35 13 19 - - 0.0
16/01:00pm 14.3 - - - - NNW 24 33 13 18 - - 0.0
16/12:30pm 14.1 - - - - NNW 24 35 13 19 - - 0.0
16/12:00pm 14.8 - - - - NNW 26 39 14 21 - - 0.0
16/11:30am 14.4 - - - - N 24 39 13 21 - - 0.0
16/11:00am 13.4 - - - - N 33 43 18 23 - - 0.0
16/10:30am 13.1 - - - - N 33 44 18 24 - - 0.0
16/10:00am 13.1 - - - - N 33 46 18 25 - - 0.0
16/09:34am 13.4 - - - - N 35 54 19 29 - - 0.0
16/09:30am 13.0 - - - - N 33 44 18 24 - - 0.0
16/09:00am 12.3 - - - - N 30 39 16 21 - - 0.0
16/08:30am 12.0 - - - - N 26 33 14 18 - - 0.0
16/08:00am 11.7 - - - - N 28 35 15 19 - - 0.0
16/07:30am 11.0 - - - - N 24 35 13 19 - - 0.0
16/07:00am 10.6 - - - - NNW 24 33 13 18 - - 0.0
16/06:30am 10.7 - - - - NNW 28 37 15 20 - - 0.0
16/06:00am 10.9 - - - - NNW 28 37 15 20 - - 0.0
16/05:30am 11.1 - - - - NNW 32 41 17 22 - - 0.0
16/05:00am 11.3 - - - - NNW 30 37 16 20 - - 0.0
16/04:30am 11.8 - - - - NNW 24 30 13 16 - - 0.0
16/04:00am 12.9 - - - - NNW 24 33 13 18 - - 0.0
16/03:30am 12.7 - - - - NNW 22 30 12 16 - - 0.0
16/03:00am 12.4 - - - - NNW 22 28 12 15 - - 0.0
16/02:30am 12.6 - - - - N 24 30 13 16 - - 0.0
16/02:00am 12.9 - - - - N 22 30 12 16 - - 0.0
16/01:30am 12.6 - - - - N 19 20 10 11 - - 0.0
16/01:00am 12.5 - - - - N 15 19 8 10 - - 0.0
16/12:30am 12.8 - - - - N 13 17 7 9 - - 0.0
16/12:00am 12.1 - - - - NE 17 22 9 12 - - 0.0
 
Date/Time
EDT
Temp
°C
App
Temp
°C
Dew
Point
°C
Rel
Hum
%
Delta-T
°C
Wind Press
QNH
hPa
Press
MSL
hPa
Rain since
9am
mm
Dir  Spd
km/h
Gust
km/h
Spd
kts
Gust
kts
15/11:30pm 12.0 - - - - ENE 17 22 9 12 - - 0.0
15/11:00pm 12.0 - - - - ENE 19 24 10 13 - - 0.0
15/10:30pm 12.2 - - - - ENE 15 19 8 10 - - 0.0
15/10:00pm 11.5 - - - - E 9 13 5 7 - - 0.0
15/09:30pm 12.2 - - - - ESE 9 13 5 7 - - 0.0
15/09:00pm 12.5 - - - - ESE 9 13 5 7 - - 0.0
15/08:30pm 13.5 - - - - E 6 9 3 5 - - 0.0
15/08:00pm 14.3 - - - - E 6 7 3 4 - - 0.0
15/07:30pm 15.2 - - - - ENE 7 9 4 5 - - 0.0
15/07:00pm 17.0 - - - - ENE 6 9 3 5 - - 0.0
15/06:30pm 17.1 - - - - SE 4 7 2 4 - - 0.0
15/06:00pm 16.9 - - - - ESE 6 13 3 7 - - 0.0
15/05:30pm 18.5 - - - - ENE 6 11 3 6 - - 0.0
15/05:00pm 18.5 - - - - W 6 11 3 6 - - 0.0
15/04:30pm 17.8 - - - - NNW 9 19 5 10 - - 0.0
15/04:00pm 17.4 - - - - S 9 19 5 10 - - 0.0
15/03:30pm 17.7 - - - - WNW 7 20 4 11 - - 0.0
15/03:00pm 17.3 - - - - WNW 9 20 5 11 - - 0.0
15/02:30pm 16.2 - - - - W 9 19 5 10 - - 0.0
15/02:00pm 15.5 - - - - NW 13 19 7 10 - - 0.0
15/01:30pm 16.3 - - - - N 13 24 7 13 - - 0.0
15/01:00pm 15.4 - - - - N 9 20 5 11 - - 0.0
15/12:30pm 14.9 - - - - NNE 13 20 7 11 - - 0.0
15/12:00pm 14.6 - - - - NNW 17 24 9 13 - - 0.0
15/11:30am 13.9 - - - - NNW 19 26 10 14 - - 0.0
15/11:00am 13.5 - - - - NNW 20 30 11 16 - - 0.0
15/10:30am 13.4 - - - - NNW 24 33 13 18 - - 0.0
15/10:00am 13.6 - - - - NNW 20 28 11 15 - - 0.0
15/09:30am 12.9 - - - - N 17 26 9 14 - - 0.0
15/09:00am 12.7 - - - - NNW 17 20 9 11 - - 0.0
15/08:30am 12.4 - - - - NNW 15 17 8 9 - - 0.0
15/08:00am 13.1 - - - - N 7 9 4 5 - - 0.0
15/07:30am 12.6 - - - - N 7 9 4 5 - - 0.0
15/07:00am 12.3 - - - - NNE 6 6 3 3 - - 0.0
15/06:30am 12.4 - - - - NNE 7 9 4 5 - - 0.0
15/06:00am 11.5 - - - - N 6 6 3 3 - - 0.0
15/05:30am 11.4 - - - - N 7 9 4 5 - - 0.0
15/05:00am 12.5 - - - - NW 4 6 2 3 - - 0.0
15/04:30am 12.2 - - - - SE 2 4 1 2 - - 0.0
15/04:00am 12.7 - - - - SSE 4 6 2 3 - - 0.0
15/03:30am 12.4 - - - - SSE 6 9 3 5 - - 0.0
15/03:00am 12.4 - - - - SE 6 9 3 5 - - 0.0
15/02:30am 11.2 - - - - ESE 7 9 4 5 - - 0.0
15/02:00am 10.6 - - - - SE 15 17 8 9 - - 0.0
15/01:30am 10.9 - - - - SE 11 17 6 9 - - 0.0
15/01:00am 10.4 - - - - ESE 6 13 3 7 - - 0.0
15/12:30am 10.4 - - - - ESE 11 17 6 9 - - 0.0
15/12:00am 10.7 - - - - SSE 13 17 7 9 - - 0.0
 
Date/Time
EDT
Temp
°C
App
Temp
°C
Dew
Point
°C
Rel
Hum
%
Delta-T
°C
Wind Press
QNH
hPa
Press
MSL
hPa
Rain since
9am
mm
Dir  Spd
km/h
Gust
km/h
Spd
kts
Gust
kts
14/11:30pm 10.8 - - - - SSE 7 13 4 7 - - 0.0
14/11:00pm 10.0 - - - - SE 7 9 4 5 - - 0.0
14/10:30pm 9.4 - - - - ESE 7 11 4 6 - - 0.0
14/10:00pm 9.6 - - - - ESE 7 11 4 6 - - 0.0
14/09:30pm 9.1 - - - - ESE 6 9 3 5 - - 0.0
14/09:00pm 9.9 - - - - ESE 4 7 2 4 - - 0.0
14/08:30pm 10.1 - - - - SSW 9 11 5 6 - - 0.0
14/08:00pm 11.4 - - - - SSW 9 13 5 7 - - 0.0
14/07:30pm 11.8 - - - - SSW 13 15 7 8 - - 0.0
14/07:00pm 12.6 - - - - S 9 13 5 7 - - 0.0
14/06:30pm 12.6 - - - - S 7 15 4 8 - - 0.0
14/06:00pm 13.0 - - - - S 7 13 4 7 - - 0.0
14/05:30pm 13.0 - - - - SSE 4 9 2 5 - - 0.0
14/05:00pm 13.3 - - - - SSW 6 13 3 7 - - 0.0
14/04:30pm 12.6 - - - - W 9 15 5 8 - - 0.0
14/04:00pm 12.5 - - - - W 9 19 5 10 - - 0.0
14/03:30pm 11.7 - - - - NW 9 20 5 11 - - 0.0
14/03:00pm 12.3 - - - - NW 13 22 7 12 - - 0.0

Other Formats:

Comma delimited format used in spreadsheet applications
http://www.bom.gov.au/fwo/IDV60801/IDV60801.94906.axf

JavaScript Object Notation format (JSON) in row-major order
http://www.bom.gov.au/fwo/IDV60801/IDV60801.94906.json